createdAt,value
2022-11-27T00:01:36.716Z,102.90
2022-11-27T00:04:05.943Z,97.10
2022-11-27T00:06:35.864Z,76.37
2022-11-27T00:09:07.839Z,109.90
2022-11-27T00:11:39.365Z,101.57
2022-11-27T00:14:10.977Z,116.20
2022-11-27T00:16:39.369Z,113.20
2022-11-27T00:19:07.957Z,115.53
2022-11-27T00:21:37.042Z,121.22
2022-11-27T00:24:07.735Z,111.78
2022-11-27T00:26:38.370Z,128.23
2022-11-27T00:29:07.712Z,111.75
2022-11-27T00:31:38.442Z,116.03
2022-11-27T00:34:08.772Z,116.43
2022-11-27T00:36:38.303Z,110.80
2022-11-27T00:39:07.161Z,111.00
2022-11-27T00:41:35.970Z,115.30
2022-11-27T00:44:05.145Z,115.50
2022-11-27T00:46:34.965Z,108.88
2022-11-27T00:51:34.884Z,99.18
2022-11-27T00:54:03.624Z,106.57
2022-11-27T00:56:34.107Z,114.72
2022-11-27T00:59:02.990Z,111.43
2022-11-27T01:01:32.766Z,117.05
2022-11-27T01:06:32.262Z,112.75
2022-11-27T01:09:01.224Z,112.03
2022-11-27T01:11:31.403Z,120.97
2022-11-27T01:16:30.263Z,104.78
2022-11-27T01:19:00.033Z,103.10
2022-11-27T01:21:32.399Z,101.45
2022-11-27T01:24:01.643Z,106.57
2022-11-27T01:26:30.517Z,98.35
2022-11-27T01:28:59.626Z,98.55
2022-11-27T01:31:31.611Z,98.80
2022-11-27T01:34:01.741Z,98.07
2022-11-27T01:36:32.832Z,93.22
2022-11-27T01:39:02.009Z,96.80
2022-11-27T01:41:32.194Z,92.40
2022-11-27T01:44:02.288Z,95.85
2022-11-27T01:46:36.656Z,101.97
2022-11-27T01:49:21.526Z,99.63
2022-11-27T01:51:53.993Z,100.10
2022-11-27T01:54:23.532Z,98.20
2022-11-27T01:56:56.242Z,99.20
2022-11-27T01:59:25.297Z,97.78
2022-11-27T02:01:53.623Z,97.43
2022-11-27T02:04:22.324Z,105.05
2022-11-27T02:06:52.394Z,104.93
2022-11-27T02:09:21.006Z,109.03
2022-11-27T02:11:55.382Z,116.47
2022-11-27T02:14:28.165Z,121.45
2022-11-27T02:17:00.448Z,125.78
2022-11-27T02:19:40.509Z,114.47
2022-11-27T02:22:19.545Z,126.85
2022-11-27T02:24:54.783Z,118.13
2022-11-27T02:28:03.024Z,118.55
2022-11-27T02:30:37.619Z,109.63
2022-11-27T02:33:07.930Z,112.65
2022-11-27T02:38:09.211Z,115.28
2022-11-27T02:40:40.552Z,123.03
2022-11-27T02:43:11.939Z,126.72
2022-11-27T02:45:44.168Z,120.25
2022-11-27T02:48:14.700Z,131.77
2022-11-27T02:50:45.942Z,116.05
2022-11-27T02:53:18.931Z,114.32
2022-11-27T02:55:48.260Z,126.57
2022-11-27T02:58:19.618Z,80.65
2022-11-27T03:00:50.835Z,128.48
2022-11-27T03:03:22.966Z,119.55
2022-11-27T03:05:54.003Z,110.40
2022-11-27T03:08:27.065Z,123.78
2022-11-27T03:10:59.549Z,111.15
2022-11-27T03:13:28.968Z,118.95
2022-11-27T03:16:08.363Z,90.35
2022-11-27T03:18:40.496Z,96.95
2022-11-27T03:21:16.809Z,128.45
2022-11-27T03:23:45.613Z,125.30
2022-11-27T03:26:14.329Z,136.02
2022-11-27T03:28:44.552Z,140.20
2022-11-27T03:31:15.008Z,127.25
2022-11-27T03:33:43.723Z,135.50
2022-11-27T03:36:15.015Z,147.70
2022-11-27T03:38:44.025Z,140.38
2022-11-27T03:41:20.485Z,141.10
2022-11-27T03:43:57.641Z,133.60
2022-11-27T03:46:33.220Z,133.98
2022-11-27T03:49:10.441Z,124.07
2022-11-27T03:51:43.189Z,121.57
2022-11-27T03:54:19.086Z,120.35
2022-11-27T03:56:51.844Z,126.35
2022-11-27T03:59:25.194Z,125.30
2022-11-27T04:01:54.945Z,125.47
2022-11-27T04:04:23.711Z,121.53
2022-11-27T04:06:52.441Z,119.85
2022-11-27T04:09:21.057Z,119.72
2022-11-27T04:11:49.817Z,111.45
2022-11-27T04:14:18.431Z,107.38
2022-11-27T04:16:46.641Z,112.35
2022-11-27T04:19:16.929Z,106.43
2022-11-27T04:24:14.004Z,103.03
2022-11-27T04:26:42.688Z,98.93
2022-11-27T04:29:11.320Z,111.97
2022-11-27T04:31:39.943Z,96.93
2022-11-27T04:34:08.697Z,103.20
2022-11-27T04:36:39.673Z,103.22
2022-11-27T04:39:08.556Z,103.70
2022-11-27T04:41:37.322Z,101.15
2022-11-27T04:44:06.659Z,109.60
2022-11-27T04:46:35.182Z,104.32
2022-11-27T04:49:03.820Z,100.72
2022-11-27T04:51:32.953Z,105.53
2022-11-27T04:54:03.224Z,104.75
2022-11-27T04:59:00.286Z,110.32
2022-11-27T05:01:28.624Z,111.75
2022-11-27T05:03:57.309Z,111.28
2022-11-27T05:06:26.017Z,108.60
2022-11-27T05:09:00.087Z,113.40
2022-11-27T05:11:30.988Z,109.07
2022-11-27T05:14:13.422Z,107.00
2022-11-27T05:16:41.935Z,107.70
2022-11-27T05:19:11.102Z,106.20
2022-11-27T05:21:40.069Z,105.22
2022-11-27T05:24:09.031Z,103.15
2022-11-27T05:26:39.702Z,110.30
2022-11-27T05:29:09.083Z,105.80
2022-11-27T05:31:37.757Z,103.85
2022-11-27T05:34:06.757Z,116.15
2022-11-27T05:36:35.780Z,110.85
2022-11-27T05:39:06.391Z,108.80
2022-11-27T05:41:35.325Z,97.40
2022-11-27T05:44:05.798Z,114.20
2022-11-27T05:46:34.393Z,108.47
2022-11-27T05:49:03.036Z,104.50
2022-11-27T05:51:31.741Z,105.30
2022-11-27T05:54:00.430Z,107.38
2022-11-27T05:56:29.055Z,99.97
2022-11-27T05:58:57.817Z,108.72
2022-11-27T06:01:27.614Z,111.90
2022-11-27T06:06:24.879Z,99.28
2022-11-27T06:08:53.563Z,112.07
2022-11-27T06:11:23.342Z,119.25
2022-11-27T06:13:52.171Z,72.30
2022-11-27T06:16:22.403Z,106.93
2022-11-27T06:23:50.328Z,111.70
2022-11-27T06:26:20.683Z,117.60
2022-11-27T06:28:50.168Z,120.22
2022-11-27T06:31:20.604Z,115.83
2022-11-27T06:33:50.423Z,105.00
2022-11-27T06:36:21.320Z,117.93
2022-11-27T06:38:50.030Z,96.22
2022-11-27T06:41:20.958Z,108.47
2022-11-27T06:43:49.576Z,108.55
2022-11-27T06:46:21.254Z,110.50
2022-11-27T06:48:51.535Z,99.95
2022-11-27T06:53:52.167Z,113.75
2022-11-27T06:56:24.023Z,106.95
2022-11-27T06:58:53.535Z,108.10
2022-11-27T07:01:23.458Z,110.10
2022-11-27T07:03:52.616Z,117.03
2022-11-27T07:06:23.894Z,113.57
2022-11-27T07:08:53.163Z,109.68
2022-11-27T07:11:23.284Z,106.30
2022-11-27T07:13:52.763Z,100.85
2022-11-27T07:16:21.438Z,111.22
2022-11-27T07:18:51.525Z,110.00
2022-11-27T07:21:20.473Z,108.78
2022-11-27T07:23:50.530Z,109.53
2022-11-27T07:26:23.275Z,99.43
2022-11-27T07:28:51.866Z,104.25
2022-11-27T07:31:22.451Z,120.38
2022-11-27T07:33:52.572Z,100.85
2022-11-27T07:36:22.534Z,112.97
2022-11-27T07:38:53.227Z,105.95
2022-11-27T07:41:22.149Z,108.45
2022-11-27T07:43:50.504Z,106.65
2022-11-27T07:46:20.539Z,112.95
2022-11-27T07:48:49.247Z,106.90
2022-11-27T07:51:20.365Z,116.00
2022-11-27T07:53:51.830Z,113.28
2022-11-27T07:56:22.256Z,113.05
2022-11-27T07:58:50.652Z,104.88
2022-11-27T08:01:21.804Z,112.55
2022-11-27T08:03:50.515Z,107.30
2022-11-27T08:06:21.708Z,73.53
2022-11-27T08:08:51.251Z,117.18
2022-11-27T08:11:23.737Z,115.72
2022-11-27T08:13:52.171Z,112.80
2022-11-27T08:16:20.915Z,110.70
2022-11-27T08:18:49.581Z,107.25
2022-11-27T08:21:21.621Z,104.68
2022-11-27T08:23:50.416Z,104.80
2022-11-27T08:26:19.034Z,116.38
2022-11-27T08:28:48.735Z,108.60
2022-11-27T08:31:20.842Z,97.93
2022-11-27T08:33:49.721Z,107.70
2022-11-27T08:36:18.767Z,104.07
2022-11-27T08:38:47.652Z,88.13
2022-11-27T08:41:16.336Z,106.90
2022-11-27T08:43:44.740Z,106.10
2022-11-27T08:46:15.007Z,99.03
2022-11-27T08:51:13.607Z,90.32
2022-11-27T08:53:45.664Z,106.05
2022-11-27T08:56:17.524Z,89.32
2022-11-27T08:58:46.411Z,98.43
2022-11-27T09:01:18.688Z,95.07
2022-11-27T09:03:47.700Z,99.88
2022-11-27T09:06:19.972Z,90.57
2022-11-27T09:08:48.752Z,98.47
2022-11-27T09:11:20.950Z,86.68
2022-11-27T09:13:49.499Z,97.40
2022-11-27T09:16:21.287Z,90.82
2022-11-27T09:18:51.705Z,92.43
2022-11-27T09:23:49.737Z,97.97
2022-11-27T09:26:18.649Z,99.72
2022-11-27T09:28:47.547Z,89.10
2022-11-27T09:31:16.784Z,100.03
2022-11-27T09:33:47.289Z,82.72
2022-11-27T09:36:17.779Z,89.30
2022-11-27T09:38:46.598Z,90.13
2022-11-27T09:41:27.675Z,84.82
2022-11-27T09:43:58.160Z,100.00
2022-11-27T09:46:31.323Z,95.72
2022-11-27T09:49:02.363Z,86.50
2022-11-27T09:51:34.255Z,95.53
2022-11-27T09:54:08.287Z,97.20
2022-11-27T09:56:37.793Z,87.72
2022-11-27T09:59:15.191Z,91.80
2022-11-27T10:01:49.328Z,86.35
2022-11-27T10:04:21.554Z,87.50
2022-11-27T10:07:16.772Z,96.95
2022-11-27T10:09:56.998Z,96.63
2022-11-27T10:12:31.516Z,89.82
2022-11-27T10:15:05.758Z,89.65
2022-11-27T10:17:38.545Z,87.63
2022-11-27T10:20:19.964Z,92.75
2022-11-27T10:22:53.942Z,93.72
2022-11-27T10:25:26.847Z,92.03
2022-11-27T10:28:03.317Z,93.05
2022-11-27T10:30:33.525Z,87.68
2022-11-27T10:33:03.824Z,88.43
2022-11-27T10:38:07.027Z,81.47
2022-11-27T10:40:38.808Z,85.90
2022-11-27T10:43:12.581Z,94.68
2022-11-27T10:45:45.472Z,84.30
2022-11-27T10:48:14.616Z,91.07
2022-11-27T10:50:46.238Z,93.82
2022-11-27T10:53:20.967Z,93.82
2022-11-27T10:56:02.655Z,87.90
2022-11-27T10:58:34.486Z,83.28
2022-11-27T11:01:04.901Z,82.55
2022-11-27T11:03:33.826Z,89.72
2022-11-27T11:06:23.178Z,79.40
2022-11-27T11:09:03.034Z,78.75
2022-11-27T11:11:31.796Z,77.07
2022-11-27T11:14:00.394Z,80.53
2022-11-27T11:16:35.128Z,71.32
2022-11-27T11:19:06.351Z,72.35
2022-11-27T11:21:40.595Z,75.68
2022-11-27T11:24:15.950Z,73.18
2022-11-27T11:26:46.812Z,74.95
2022-11-27T11:29:31.053Z,82.13
2022-11-27T11:32:03.796Z,79.03
2022-11-27T11:34:32.798Z,77.53
2022-11-27T11:37:05.032Z,75.30
2022-11-27T11:39:35.718Z,79.35
2022-11-27T11:42:10.716Z,77.90
2022-11-27T11:44:40.894Z,80.38
2022-11-27T11:49:44.008Z,87.85
2022-11-27T11:52:26.774Z,83.43
2022-11-27T11:55:01.747Z,80.90
2022-11-27T11:58:02.794Z,77.68
2022-11-27T12:00:58.426Z,79.03
2022-11-27T12:03:38.322Z,82.97
2022-11-27T12:06:32.721Z,82.32
2022-11-27T12:09:21.449Z,76.43
2022-11-27T12:11:55.720Z,74.10
2022-11-27T12:14:35.752Z,85.82
2022-11-27T12:17:12.551Z,77.03
2022-11-27T12:20:19.824Z,77.25
2022-11-27T12:23:16.657Z,70.15
2022-11-27T12:25:51.088Z,76.53
2022-11-27T12:28:33.907Z,77.43
2022-11-27T12:31:06.795Z,77.40
2022-11-27T12:33:44.512Z,76.40
2022-11-27T12:36:19.247Z,71.55
2022-11-27T12:39:11.299Z,79.10
2022-11-27T12:41:50.508Z,73.68
2022-11-27T12:44:23.936Z,81.05
2022-11-27T12:46:58.816Z,76.50
2022-11-27T12:49:30.113Z,78.45
2022-11-27T12:52:03.706Z,79.57
2022-11-27T12:54:34.176Z,78.40
2022-11-27T12:57:09.107Z,79.88
2022-11-27T12:59:42.580Z,81.72
2022-11-27T13:02:24.976Z,77.07
2022-11-27T13:04:57.807Z,75.82
2022-11-27T13:07:29.625Z,72.13
2022-11-27T13:10:02.183Z,79.18
2022-11-27T13:12:36.375Z,79.47
2022-11-27T13:15:10.183Z,80.72
2022-11-27T13:17:42.047Z,78.95
2022-11-27T13:20:15.874Z,81.00
2022-11-27T13:22:44.876Z,76.35
2022-11-27T13:25:15.536Z,81.47
2022-11-27T13:27:48.178Z,72.90
2022-11-27T13:30:22.131Z,70.13
2022-11-27T13:32:52.851Z,70.88
2022-11-27T13:35:24.714Z,69.32
2022-11-27T13:37:58.689Z,70.22
2022-11-27T13:40:30.275Z,61.92
2022-11-27T13:43:05.362Z,60.88
2022-11-27T13:45:37.811Z,62.45
2022-11-27T13:48:31.077Z,66.85
2022-11-27T13:51:00.186Z,70.28
2022-11-27T13:53:33.320Z,67.53
2022-11-27T13:56:02.006Z,66.90
2022-11-27T13:58:33.801Z,68.65
2022-11-27T14:01:14.708Z,85.07
2022-11-27T14:03:43.516Z,71.50
2022-11-27T14:06:21.795Z,76.82
2022-11-27T14:08:52.450Z,73.15
2022-11-27T14:11:40.290Z,77.88
2022-11-27T14:14:22.017Z,72.43
2022-11-27T14:16:58.765Z,80.85
2022-11-27T14:19:34.522Z,74.43
2022-11-27T14:22:03.543Z,74.35
2022-11-27T14:24:41.451Z,73.70
2022-11-27T14:27:21.541Z,74.80
2022-11-27T14:29:52.353Z,76.70
2022-11-27T14:32:22.010Z,70.60
2022-11-27T14:34:50.232Z,70.07
2022-11-27T14:37:23.663Z,74.30
2022-11-27T14:39:52.653Z,70.47
2022-11-27T14:42:28.141Z,69.88
2022-11-27T14:45:07.607Z,72.47
2022-11-27T14:47:36.880Z,75.93
2022-11-27T14:50:07.383Z,78.95
2022-11-27T14:55:04.643Z,77.25
2022-11-27T14:57:33.408Z,74.88
2022-11-27T15:00:16.862Z,75.60
2022-11-27T15:02:46.321Z,74.43
2022-11-27T15:05:20.866Z,76.60
2022-11-27T15:07:51.084Z,72.47
2022-11-27T15:10:28.355Z,79.43
2022-11-27T15:12:57.886Z,75.95
2022-11-27T15:15:29.529Z,77.40
2022-11-27T15:18:00.006Z,78.85
2022-11-27T15:20:33.212Z,74.05
2022-11-27T15:23:02.130Z,77.20
2022-11-27T15:25:36.139Z,79.70
2022-11-27T15:28:06.535Z,78.05
2022-11-27T15:33:05.236Z,79.00
2022-11-27T15:35:35.427Z,77.20
2022-11-27T15:40:39.757Z,76.60
2022-11-27T15:43:12.045Z,82.85
2022-11-27T15:45:43.158Z,81.10
2022-11-27T15:48:15.828Z,84.35
2022-11-27T15:50:51.208Z,93.20
2022-11-27T15:53:20.374Z,92.32
2022-11-27T15:55:48.683Z,102.35
2022-11-27T15:58:17.292Z,101.63
2022-11-27T16:00:47.286Z,90.40
2022-11-27T16:03:16.021Z,96.95
2022-11-27T16:05:44.879Z,97.25
2022-11-27T16:08:14.116Z,91.57
2022-11-27T16:10:42.613Z,99.32
2022-11-27T16:13:11.298Z,95.88
2022-11-27T16:15:39.975Z,97.85
2022-11-27T16:18:10.832Z,96.30
2022-11-27T16:20:39.604Z,92.03
2022-11-27T16:23:08.297Z,93.85
2022-11-27T16:25:39.296Z,97.80
2022-11-27T16:28:07.990Z,92.18
2022-11-27T16:30:36.738Z,89.20
2022-11-27T16:33:05.463Z,89.88
2022-11-27T16:35:35.546Z,90.75
2022-11-27T16:38:04.374Z,87.18
2022-11-27T16:40:34.956Z,91.65
2022-11-27T16:43:04.335Z,85.80
2022-11-27T16:45:37.303Z,100.30
2022-11-27T16:48:06.312Z,95.30
2022-11-27T16:50:36.529Z,98.72
2022-11-27T16:55:34.269Z,99.35
2022-11-27T16:58:02.988Z,96.20
2022-11-27T17:00:31.995Z,95.68
2022-11-27T17:03:00.697Z,87.97
2022-11-27T17:05:29.313Z,93.32
2022-11-27T17:07:59.576Z,97.80
2022-11-27T17:10:28.019Z,99.35
2022-11-27T17:12:56.656Z,92.10
2022-11-27T17:15:25.291Z,92.97
2022-11-27T17:17:57.633Z,95.00
2022-11-27T17:20:26.403Z,99.88
2022-11-27T17:22:54.696Z,95.50
2022-11-27T17:25:25.528Z,101.20
2022-11-27T17:27:54.862Z,93.30
2022-11-27T17:30:23.835Z,93.15
2022-11-27T17:32:52.618Z,100.72
2022-11-27T17:35:21.466Z,106.15
2022-11-27T17:37:49.731Z,95.32
2022-11-27T17:40:18.513Z,103.43
2022-11-27T17:42:49.244Z,103.65
2022-11-27T17:45:18.045Z,108.00
2022-11-27T17:47:46.823Z,111.72
2022-11-27T17:50:15.665Z,108.07
2022-11-27T17:52:44.195Z,101.18
2022-11-27T17:55:13.477Z,100.47
2022-11-27T17:57:42.594Z,93.93
2022-11-27T18:00:13.392Z,102.20
2022-11-27T18:02:45.503Z,96.60
2022-11-27T18:05:15.524Z,101.43
2022-11-27T18:07:44.535Z,109.50
2022-11-27T18:10:13.515Z,106.05
2022-11-27T18:12:42.494Z,98.45
2022-11-27T18:15:14.225Z,100.97
2022-11-27T18:17:43.019Z,107.82
2022-11-27T18:20:12.142Z,106.70
2022-11-27T18:22:40.459Z,110.18
2022-11-27T18:25:09.937Z,108.25
2022-11-27T18:27:38.590Z,84.47
2022-11-27T18:30:08.531Z,114.15
2022-11-27T18:32:39.098Z,110.00
2022-11-27T18:35:08.320Z,107.40
2022-11-27T18:37:38.555Z,117.38
2022-11-27T18:40:09.288Z,108.93
2022-11-27T18:42:38.097Z,114.75
2022-11-27T18:45:20.172Z,126.80
2022-11-27T18:47:58.300Z,112.10
2022-11-27T18:52:58.543Z,116.03
2022-11-27T18:55:27.333Z,116.15
2022-11-27T18:57:56.254Z,112.45
2022-11-27T19:00:25.090Z,109.10
2022-11-27T19:02:54.099Z,108.72
2022-11-27T19:05:24.251Z,109.95
2022-11-27T19:07:52.641Z,104.88
2022-11-27T19:10:21.650Z,130.05
2022-11-27T19:12:50.371Z,134.50
2022-11-27T19:15:19.278Z,133.27
2022-11-27T19:17:47.921Z,123.57
2022-11-27T19:20:16.653Z,120.78
2022-11-27T19:22:47.141Z,113.22
2022-11-27T19:25:16.058Z,120.68
2022-11-27T19:27:45.023Z,135.77
2022-11-27T19:30:14.829Z,146.20
2022-11-27T19:32:44.153Z,135.27
2022-11-27T19:35:13.976Z,139.00
2022-11-27T19:37:42.287Z,134.68
2022-11-27T19:40:13.877Z,135.27
2022-11-27T19:42:42.562Z,125.05
2022-11-27T19:45:12.274Z,132.82
2022-11-27T19:47:40.957Z,117.07
2022-11-27T19:50:10.240Z,127.70
2022-11-27T19:52:38.658Z,134.48
2022-11-27T19:55:08.262Z,130.32
2022-11-27T19:57:38.875Z,139.85
2022-11-27T20:02:42.821Z,132.60
2022-11-27T20:05:11.688Z,129.73
2022-11-27T20:07:40.430Z,138.55
2022-11-27T20:10:09.955Z,129.75
2022-11-27T20:12:41.366Z,130.07
2022-11-27T20:15:14.428Z,127.30
2022-11-27T20:17:43.865Z,141.40
2022-11-27T20:20:14.340Z,121.13
2022-11-27T20:22:43.195Z,122.88
2022-11-27T20:25:19.518Z,125.28
2022-11-27T20:27:51.470Z,126.15
2022-11-27T20:30:20.861Z,130.82
2022-11-27T20:32:49.616Z,139.77
2022-11-27T20:35:18.380Z,129.07
2022-11-27T20:37:47.887Z,130.47
2022-11-27T20:40:17.131Z,141.90
2022-11-27T20:42:46.103Z,149.00
2022-11-27T20:45:20.347Z,134.88
2022-11-27T20:47:51.209Z,142.52
2022-11-27T20:50:21.069Z,142.32
2022-11-27T20:52:49.986Z,135.48
2022-11-27T20:55:20.018Z,127.95
2022-11-27T20:57:53.495Z,128.05
2022-11-27T21:00:25.895Z,136.15
2022-11-27T21:02:55.089Z,123.28
2022-11-27T21:05:23.795Z,131.52
2022-11-27T21:07:52.221Z,136.18
2022-11-27T21:10:23.418Z,131.68
2022-11-27T21:12:52.134Z,137.80
2022-11-27T21:15:20.837Z,143.88
2022-11-27T21:17:50.951Z,149.75
2022-11-27T21:22:49.230Z,148.70
2022-11-27T21:25:22.642Z,147.20
2022-11-27T21:27:55.920Z,134.55
2022-11-27T21:30:24.632Z,139.85
2022-11-27T21:32:54.771Z,126.13
2022-11-27T21:35:26.392Z,136.95
2022-11-27T21:37:57.034Z,131.98
2022-11-27T21:40:25.665Z,121.05
2022-11-27T21:42:54.710Z,128.35
2022-11-27T21:45:23.423Z,118.63
2022-11-27T21:47:52.114Z,132.50
2022-11-27T21:50:22.220Z,128.10
2022-11-27T21:52:50.484Z,126.32
2022-11-27T21:55:21.998Z,140.82
2022-11-27T21:57:50.741Z,126.28
2022-11-27T22:00:20.699Z,130.23
2022-11-27T22:02:49.502Z,135.70
2022-11-27T22:05:18.747Z,127.70
2022-11-27T22:07:48.403Z,153.15
2022-11-27T22:10:17.111Z,144.27
2022-11-27T22:12:45.949Z,136.88
2022-11-27T22:15:14.911Z,152.93
2022-11-27T22:17:43.771Z,159.13
2022-11-27T22:20:14.200Z,145.27
2022-11-27T22:22:43.014Z,154.07
2022-11-27T22:25:13.183Z,150.90
2022-11-27T22:27:42.023Z,148.60
2022-11-27T22:30:11.482Z,145.43
2022-11-27T22:32:40.312Z,147.13
2022-11-27T22:35:09.667Z,149.93
2022-11-27T22:37:38.146Z,150.57
2022-11-27T22:40:08.654Z,158.50
2022-11-27T22:45:10.139Z,167.60
2022-11-27T22:47:38.766Z,153.65
2022-11-27T22:50:08.443Z,143.25
2022-11-27T22:52:37.168Z,151.00
2022-11-27T22:55:06.624Z,154.52
2022-11-27T22:57:35.389Z,155.93
2022-11-27T23:00:07.686Z,146.70
2022-11-27T23:02:38.654Z,156.50
2022-11-27T23:05:07.730Z,161.10
2022-11-27T23:07:36.124Z,157.07
2022-11-27T23:10:05.147Z,149.30
2022-11-27T23:12:33.769Z,150.23
2022-11-27T23:15:02.434Z,149.07
2022-11-27T23:17:32.426Z,169.55
2022-11-27T23:20:01.032Z,171.20
2022-11-27T23:22:29.347Z,154.80
2022-11-27T23:24:57.924Z,159.95
2022-11-27T23:27:26.506Z,157.57
2022-11-27T23:29:55.131Z,144.05
2022-11-27T23:32:23.808Z,168.70
2022-11-27T23:34:53.507Z,159.23
2022-11-27T23:37:22.087Z,161.45
2022-11-27T23:39:50.689Z,168.85
2022-11-27T23:42:19.280Z,160.95
2022-11-27T23:44:47.919Z,158.27
2022-11-27T23:47:16.577Z,176.02
2022-11-27T23:49:44.766Z,156.30
2022-11-27T23:52:17.299Z,176.18
2022-11-27T23:54:46.040Z,146.60
2022-11-27T23:57:14.874Z,182.98
2022-11-27T23:59:43.554Z,186.90
